sensor_id;sensor_type;location;lat;lon;timestamp;pressure;altitude;pressure_sealevel;temperature;humidity
1207;BME280;593;53.184;8.216;2024-02-21T00:00:50;101486.22;;;11.08;100.00
1207;BME280;593;53.184;8.216;2024-02-21T00:03:15;101494.38;;;11.08;100.00
1207;BME280;593;53.184;8.216;2024-02-21T00:05:40;101484.59;;;11.07;100.00
1207;BME280;593;53.184;8.216;2024-02-21T00:08:06;101491.66;;;11.08;100.00
1207;BME280;593;53.184;8.216;2024-02-21T00:10:31;101478.03;;;11.08;100.00
1207;BME280;593;53.184;8.216;2024-02-21T00:12:58;101482.66;;;11.08;100.00
1207;BME280;593;53.184;8.216;2024-02-21T00:15:25;101480.53;;;11.10;100.00
1207;BME280;593;53.184;8.216;2024-02-21T00:17:50;101482.41;;;11.09;100.00
1207;BME280;593;53.184;8.216;2024-02-21T00:20:16;101484.31;;;11.09;100.00
1207;BME280;593;53.184;8.216;2024-02-21T00:22:41;101483.25;;;11.10;100.00
1207;BME280;593;53.184;8.216;2024-02-21T00:25:07;101489.47;;;11.10;100.00
1207;BME280;593;53.184;8.216;2024-02-21T00:27:33;101484.03;;;11.10;100.00
1207;BME280;593;53.184;8.216;2024-02-21T00:29:58;101487.59;;;11.11;100.00
1207;BME280;593;53.184;8.216;2024-02-21T00:32:24;101470.41;;;11.05;100.00
1207;BME280;593;53.184;8.216;2024-02-21T00:34:49;101481.06;;;11.12;100.00
1207;BME280;593;53.184;8.216;2024-02-21T00:37:14;101478.34;;;11.12;100.00
1207;BME280;593;53.184;8.216;2024-02-21T00:39:40;101477.53;;;11.11;100.00
1207;BME280;593;53.184;8.216;2024-02-21T00:42:05;101479.97;;;11.13;100.00
1207;BME280;593;53.184;8.216;2024-02-21T00:44:32;101468.28;;;11.12;100.00
1207;BME280;593;53.184;8.216;2024-02-21T00:46:58;101471.25;;;11.11;100.00
1207;BME280;593;53.184;8.216;2024-02-21T00:49:26;101468.28;;;11.12;100.00
1207;BME280;593;53.184;8.216;2024-02-21T00:51:52;101471.78;;;11.13;100.00
1207;BME280;593;53.184;8.216;2024-02-21T00:54:17;101472.63;;;11.13;100.00
1207;BME280;593;53.184;8.216;2024-02-21T00:56:43;101467.19;;;11.13;100.00
1207;BME280;593;53.184;8.216;2024-02-21T00:59:08;101455.47;;;11.13;100.00
1207;BME280;593;53.184;8.216;2024-02-21T01:01:33;101454.38;;;11.14;100.00
1207;BME280;593;53.184;8.216;2024-02-21T01:03:59;101442.44;;;11.15;100.00
1207;BME280;593;53.184;8.216;2024-02-21T01:06:25;101439.69;;;11.15;100.00
1207;BME280;593;53.184;8.216;2024-02-21T01:08:51;101436.16;;;11.14;100.00
1207;BME280;593;53.184;8.216;2024-02-21T01:11:16;101428.53;;;11.16;100.00
1207;BME280;593;53.184;8.216;2024-02-21T01:13:42;101427.72;;;11.16;100.00
1207;BME280;593;53.184;8.216;2024-02-21T01:16:07;101432.31;;;11.15;100.00
1207;BME280;593;53.184;8.216;2024-02-21T01:18:37;101423.91;;;11.17;100.00
1207;BME280;593;53.184;8.216;2024-02-21T01:21:03;101405.66;;;11.12;100.00
1207;BME280;593;53.184;8.216;2024-02-21T01:23:34;101416.81;;;11.16;100.00
1207;BME280;593;53.184;8.216;2024-02-21T01:26:00;101407.81;;;11.15;100.00
1207;BME280;593;53.184;8.216;2024-02-21T01:28:25;101396.69;;;11.17;100.00
1207;BME280;593;53.184;8.216;2024-02-21T01:30:51;101358.28;;;11.18;100.00
1207;BME280;593;53.184;8.216;2024-02-21T01:33:17;101340.88;;;11.14;100.00
1207;BME280;593;53.184;8.216;2024-02-21T01:35:42;101352.28;;;11.16;100.00
1207;BME280;593;53.184;8.216;2024-02-21T01:38:08;101344.13;;;11.16;100.00
1207;BME280;593;53.184;8.216;2024-02-21T01:40:33;101332.69;;;11.14;100.00
1207;BME280;593;53.184;8.216;2024-02-21T01:42:58;101339.22;;;11.13;100.00
1207;BME280;593;53.184;8.216;2024-02-21T01:45:24;101343.31;;;11.16;100.00
1207;BME280;593;53.184;8.216;2024-02-21T01:47:49;101327.78;;;11.16;100.00
1207;BME280;593;53.184;8.216;2024-02-21T01:50:16;101327.78;;;11.16;100.00
1207;BME280;593;53.184;8.216;2024-02-21T01:52:43;101317.72;;;11.17;100.00
1207;BME280;593;53.184;8.216;2024-02-21T01:55:12;101326.44;;;11.14;100.00
1207;BME280;593;53.184;8.216;2024-02-21T01:57:39;101308.19;;;11.09;100.00
1207;BME280;593;53.184;8.216;2024-02-21T02:00:05;101308.72;;;11.11;100.00
1207;BME280;593;53.184;8.216;2024-02-21T02:02:31;101305.72;;;11.13;100.00
1207;BME280;593;53.184;8.216;2024-02-21T02:04:56;101306.53;;;11.13;100.00
1207;BME280;593;53.184;8.216;2024-02-21T02:07:25;101322.88;;;11.13;100.00
1207;BME280;593;53.184;8.216;2024-02-21T02:09:50;101325.59;;;11.13;100.00
1207;BME280;593;53.184;8.216;2024-02-21T02:12:16;101331.03;;;11.13;100.00
1207;BME280;593;53.184;8.216;2024-02-21T02:14:41;101309.81;;;11.15;100.00
1207;BME280;593;53.184;8.216;2024-02-21T02:17:09;101312.00;;;11.13;100.00
1207;BME280;593;53.184;8.216;2024-02-21T02:19:35;101322.88;;;11.13;100.00
1207;BME280;593;53.184;8.216;2024-02-21T02:22:09;101337.59;;;11.12;100.00
1207;BME280;593;53.184;8.216;2024-02-21T02:24:39;101327.50;;;11.13;100.00
1207;BME280;593;53.184;8.216;2024-02-21T02:27:04;101328.59;;;11.12;100.00
1207;BME280;593;53.184;8.216;2024-02-21T02:29:32;101337.59;;;11.12;100.00
1207;BME280;593;53.184;8.216;2024-02-21T02:31:57;101330.22;;;11.13;100.00
1207;BME280;593;53.184;8.216;2024-02-21T02:34:23;101329.44;;;11.12;100.00
1207;BME280;593;53.184;8.216;2024-02-21T02:36:48;101320.16;;;11.13;100.00
1207;BME280;593;53.184;8.216;2024-02-21T02:39:14;101319.09;;;11.14;100.00
1207;BME280;593;53.184;8.216;2024-02-21T02:41:39;101327.50;;;11.13;100.00
1207;BME280;593;53.184;8.216;2024-02-21T02:44:05;101320.44;;;11.12;100.00
1207;BME280;593;53.184;8.216;2024-02-21T02:46:30;101311.16;;;11.03;100.00
1207;BME280;593;53.184;8.216;2024-02-21T02:48:56;101321.81;;;11.14;100.00
1207;BME280;593;53.184;8.216;2024-02-21T02:51:21;101313.88;;;11.13;100.00
1207;BME280;593;53.184;8.216;2024-02-21T02:53:47;101312.00;;;11.13;100.00
1207;BME280;593;53.184;8.216;2024-02-21T02:56:15;101310.91;;;11.14;100.00
1207;BME280;593;53.184;8.216;2024-02-21T02:58:42;101310.09;;;11.14;100.00
1207;BME280;593;53.184;8.216;2024-02-21T03:01:08;101308.19;;;11.14;100.00
1207;BME280;593;53.184;8.216;2024-02-21T03:03:33;101310.63;;;11.16;100.00
1207;BME280;593;53.184;8.216;2024-02-21T03:05:59;101310.63;;;11.16;100.00
1207;BME280;593;53.184;8.216;2024-02-21T03:08:24;101309.81;;;11.15;100.00
1207;BME280;593;53.184;8.216;2024-02-21T03:10:49;101313.63;;;11.14;100.00
1207;BME280;593;53.184;8.216;2024-02-21T03:13:15;101321.53;;;11.16;100.00
1207;BME280;593;53.184;8.216;2024-02-21T03:15:40;101317.97;;;11.15;100.00
1207;BME280;593;53.184;8.216;2024-02-21T03:18:06;101310.91;;;11.14;100.00
1207;BME280;593;53.184;8.216;2024-02-21T03:20:31;101304.66;;;11.14;100.00
1207;BME280;593;53.184;8.216;2024-02-21T03:22:57;101297.28;;;11.09;100.00
1207;BME280;593;53.184;8.216;2024-02-21T03:25:22;101302.19;;;11.12;100.00
1207;BME280;593;53.184;8.216;2024-02-21T03:27:48;101291.03;;;11.14;100.00
1207;BME280;593;53.184;8.216;2024-02-21T03:30:14;101300.28;;;11.13;100.00
1207;BME280;593;53.184;8.216;2024-02-21T03:32:39;101301.38;;;11.12;100.00
1207;BME280;593;53.184;8.216;2024-02-21T03:35:05;101299.72;;;11.11;100.00
1207;BME280;593;53.184;8.216;2024-02-21T03:37:30;101303.28;;;11.11;100.00
1207;BME280;593;53.184;8.216;2024-02-21T03:39:56;101301.09;;;11.08;100.00
1207;BME280;593;53.184;8.216;2024-02-21T03:42:21;101296.75;;;11.07;100.00
1207;BME280;593;53.184;8.216;2024-02-21T03:44:46;101295.09;;;11.06;100.00
1207;BME280;593;53.184;8.216;2024-02-21T03:47:12;101276.03;;;11.01;100.00
1207;BME280;593;53.184;8.216;2024-02-21T03:49:37;101288.59;;;11.07;100.00
1207;BME280;593;53.184;8.216;2024-02-21T03:52:03;101274.41;;;11.00;100.00
1207;BME280;593;53.184;8.216;2024-02-21T03:54:29;101282.56;;;11.05;100.00
1207;BME280;593;53.184;8.216;2024-02-21T03:56:54;101283.41;;;11.06;100.00
1207;BME280;593;53.184;8.216;2024-02-21T03:59:20;101284.75;;;11.03;100.00
1207;BME280;593;53.184;8.216;2024-02-21T04:01:46;101286.66;;;11.03;100.00
1207;BME280;593;53.184;8.216;2024-02-21T04:04:11;101299.19;;;11.04;100.00
1207;BME280;593;53.184;8.216;2024-02-21T04:06:36;101296.47;;;11.04;100.00
1207;BME280;593;53.184;8.216;2024-02-21T04:09:02;101300.81;;;11.00;100.00
1207;BME280;593;53.184;8.216;2024-02-21T04:11:27;101299.19;;;11.04;100.00
1207;BME280;593;53.184;8.216;2024-02-21T04:13:53;101295.09;;;11.01;100.00
1207;BME280;593;53.184;8.216;2024-02-21T04:16:18;101298.63;;;11.02;100.00
1207;BME280;593;53.184;8.216;2024-02-21T04:18:43;101300.53;;;11.01;100.00
1207;BME280;593;53.184;8.216;2024-02-21T04:21:10;101292.38;;;11.01;100.00
1207;BME280;593;53.184;8.216;2024-02-21T04:23:35;101286.09;;;11.01;100.00
1207;BME280;593;53.184;8.216;2024-02-21T04:26:01;101282.03;;;10.98;100.00
1207;BME280;593;53.184;8.216;2024-02-21T04:28:26;101277.69;;;11.02;100.00
1207;BME280;593;53.184;8.216;2024-02-21T04:30:51;101279.31;;;11.03;100.00
1207;BME280;593;53.184;8.216;2024-02-21T04:33:18;101265.16;;;10.96;100.00
1207;BME280;593;53.184;8.216;2024-02-21T04:35:43;101279.06;;;11.05;100.00
1207;BME280;593;53.184;8.216;2024-02-21T04:38:08;101277.94;;;11.06;100.00
1207;BME280;593;53.184;8.216;2024-02-21T04:40:34;101274.16;;;11.07;100.00
1207;BME280;593;53.184;8.216;2024-02-21T04:42:59;101266.50;;;10.99;100.00
1207;BME280;593;53.184;8.216;2024-02-21T04:45:25;101268.41;;;10.98;100.00
1207;BME280;593;53.184;8.216;2024-02-21T04:47:50;101280.13;;;11.04;100.00
1207;BME280;593;53.184;8.216;2024-02-21T04:50:15;101290.19;;;11.03;100.00
1207;BME280;593;53.184;8.216;2024-02-21T04:52:41;101284.50;;;11.00;100.00
1207;BME280;593;53.184;8.216;2024-02-21T04:55:06;101279.84;;;11.00;100.00
1207;BME280;593;53.184;8.216;2024-02-21T04:57:32;101286.94;;;11.01;100.00
1207;BME280;593;53.184;8.216;2024-02-21T04:59:58;101282.31;;;11.02;100.00
1207;BME280;593;53.184;8.216;2024-02-21T05:02:26;101274.16;;;11.02;100.00
1207;BME280;593;53.184;8.216;2024-02-21T05:04:52;101280.41;;;11.02;100.00
1207;BME280;593;53.184;8.216;2024-02-21T05:07:18;101280.13;;;11.04;100.00
1207;BME280;593;53.184;8.216;2024-02-21T05:09:45;101270.06;;;11.04;100.00
1207;BME280;593;53.184;8.216;2024-02-21T05:12:10;101272.78;;;11.04;100.00
1207;BME280;593;53.184;8.216;2024-02-21T05:14:35;101271.69;;;11.05;100.00
1207;BME280;593;53.184;8.216;2024-02-21T05:17:01;101266.22;;;11.05;100.00
1207;BME280;593;53.184;8.216;2024-02-21T05:19:26;101259.19;;;11.04;100.00
1207;BME280;593;53.184;8.216;2024-02-21T05:21:52;101263.50;;;11.05;100.00
1207;BME280;593;53.184;8.216;2024-02-21T05:24:17;101254.28;;;11.06;100.00
1207;BME280;593;53.184;8.216;2024-02-21T05:26:42;101249.91;;;11.05;100.00
1207;BME280;593;53.184;8.216;2024-02-21T05:29:08;101249.66;;;11.07;100.00
1207;BME280;593;53.184;8.216;2024-02-21T05:34:17;101258.34;;;11.04;100.00
1207;BME280;593;53.184;8.216;2024-02-21T05:36:43;101236.03;;;11.02;100.00
1207;BME280;593;53.184;8.216;2024-02-21T05:39:09;101240.38;;;11.03;100.00
1207;BME280;593;53.184;8.216;2024-02-21T05:41:34;101235.75;;;11.03;100.00
1207;BME280;593;53.184;8.216;2024-02-21T05:44:00;101242.84;;;11.04;100.00
1207;BME280;593;53.184;8.216;2024-02-21T05:46:25;101232.78;;;11.05;100.00
1207;BME280;593;53.184;8.216;2024-02-21T05:48:50;101237.13;;;11.06;100.00
1207;BME280;593;53.184;8.216;2024-02-21T05:51:16;101230.84;;;11.05;100.00
1207;BME280;593;53.184;8.216;2024-02-21T05:53:41;101218.06;;;11.06;100.00
1207;BME280;593;53.184;8.216;2024-02-21T05:56:10;101222.69;;;11.05;100.00
1207;BME280;593;53.184;8.216;2024-02-21T05:58:36;101225.41;;;11.05;100.00
1207;BME280;593;53.184;8.216;2024-02-21T06:01:02;101226.50;;;11.04;100.00
1207;BME280;593;53.184;8.216;2024-02-21T06:03:29;101223.50;;;11.06;100.00
1207;BME280;593;53.184;8.216;2024-02-21T06:05:54;101225.97;;;11.07;100.00
1207;BME280;593;53.184;8.216;2024-02-21T06:08:19;101226.75;;;11.08;100.00
1207;BME280;593;53.184;8.216;2024-02-21T06:10:45;101218.06;;;11.06;100.00
1207;BME280;593;53.184;8.216;2024-02-21T06:13:11;101206.34;;;11.05;100.00
1207;BME280;593;53.184;8.216;2024-02-21T06:15:36;101215.88;;;11.08;100.00
1207;BME280;593;53.184;8.216;2024-02-21T06:18:02;101218.88;;;11.06;100.00
1207;BME280;593;53.184;8.216;2024-02-21T06:20:27;101218.88;;;11.06;100.00
1207;BME280;593;53.184;8.216;2024-02-21T06:22:53;101229.78;;;11.06;100.00
1207;BME280;593;53.184;8.216;2024-02-21T06:25:18;101230.31;;;11.08;100.00
1207;BME280;593;53.184;8.216;2024-02-21T06:27:47;101227.59;;;11.08;100.00
1207;BME280;593;53.184;8.216;2024-02-21T06:30:12;101225.97;;;11.07;100.00
1207;BME280;593;53.184;8.216;2024-02-21T06:32:38;101227.59;;;11.08;100.00
1207;BME280;593;53.184;8.216;2024-02-21T06:35:04;101230.59;;;11.07;100.00
1207;BME280;593;53.184;8.216;2024-02-21T06:37:33;101226.75;;;11.08;100.00
1207;BME280;593;53.184;8.216;2024-02-21T06:39:58;101225.69;;;11.09;100.00
1207;BME280;593;53.184;8.216;2024-02-21T06:42:25;101231.13;;;11.09;100.00
1207;BME280;593;53.184;8.216;2024-02-21T06:44:50;101228.41;;;11.09;100.00
1207;BME280;593;53.184;8.216;2024-02-21T06:47:15;101219.41;;;11.08;100.00
1207;BME280;593;53.184;8.216;2024-02-21T06:49:48;101219.16;;;11.10;100.00
1207;BME280;593;53.184;8.216;2024-02-21T06:52:14;101208.81;;;11.07;100.00
1207;BME280;593;53.184;8.216;2024-02-21T06:54:42;101198.47;;;11.04;100.00
1207;BME280;593;53.184;8.216;2024-02-21T06:57:08;101200.38;;;11.08;100.00
1207;BME280;593;53.184;8.216;2024-02-21T06:59:33;101212.91;;;11.09;100.00
1207;BME280;593;53.184;8.216;2024-02-21T07:01:58;101218.06;;;11.11;100.00
1207;BME280;593;53.184;8.216;2024-02-21T07:04:25;101214.50;;;11.10;100.00
1207;BME280;593;53.184;8.216;2024-02-21T07:06:52;101228.94;;;11.11;100.00
1207;BME280;593;53.184;8.216;2024-02-21T07:09:17;101223.78;;;11.09;100.00
1207;BME280;593;53.184;8.216;2024-02-21T07:11:43;101225.16;;;11.12;100.00
1207;BME280;593;53.184;8.216;2024-02-21T07:14:08;101223.50;;;11.11;100.00
1207;BME280;593;53.184;8.216;2024-02-21T07:16:34;101219.72;;;11.12;100.00
1207;BME280;593;53.184;8.216;2024-02-21T07:19:00;101211.78;;;11.05;100.00
1207;BME280;593;53.184;8.216;2024-02-21T07:21:25;101223.25;;;11.12;100.00
1207;BME280;593;53.184;8.216;2024-02-21T07:23:50;101219.41;;;11.13;100.00
1207;BME280;593;53.184;8.216;2024-02-21T07:26:16;101215.88;;;11.13;100.00
1207;BME280;593;53.184;8.216;2024-02-21T07:28:41;101229.50;;;11.13;100.00
1207;BME280;593;53.184;8.216;2024-02-21T07:31:07;101224.31;;;11.11;100.00
1207;BME280;593;53.184;8.216;2024-02-21T07:33:32;101226.75;;;11.13;100.00
1207;BME280;593;53.184;8.216;2024-02-21T07:35:57;101225.97;;;11.12;100.00
1207;BME280;593;53.184;8.216;2024-02-21T07:38:23;101227.88;;;11.12;100.00
1207;BME280;593;53.184;8.216;2024-02-21T07:40:48;101225.97;;;11.12;100.00
1207;BME280;593;53.184;8.216;2024-02-21T07:43:14;101225.16;;;11.12;100.00
1207;BME280;593;53.184;8.216;2024-02-21T07:45:40;101232.22;;;11.13;100.00
1207;BME280;593;53.184;8.216;2024-02-21T07:48:06;101225.97;;;11.12;100.00
1207;BME280;593;53.184;8.216;2024-02-21T07:50:31;101225.69;;;11.14;100.00
1207;BME280;593;53.184;8.216;2024-02-21T07:52:57;101223.78;;;11.14;100.00
1207;BME280;593;53.184;8.216;2024-02-21T07:55:23;101216.16;;;11.11;100.00
1207;BME280;593;53.184;8.216;2024-02-21T07:57:48;101218.06;;;11.11;100.00
1207;BME280;593;53.184;8.216;2024-02-21T08:00:15;101218.59;;;11.13;100.00
1207;BME280;593;53.184;8.216;2024-02-21T08:02:45;101218.34;;;11.14;100.00
1207;BME280;593;53.184;8.216;2024-02-21T08:05:11;101211.53;;;11.12;100.00
1207;BME280;593;53.184;8.216;2024-02-21T08:07:38;101208.81;;;11.12;100.00
1207;BME280;593;53.184;8.216;2024-02-21T08:10:04;101190.00;;;11.05;100.00
1207;BME280;593;53.184;8.216;2024-02-21T08:12:29;101203.38;;;11.12;100.00
1207;BME280;593;53.184;8.216;2024-02-21T08:14:55;101197.09;;;11.11;100.00
1207;BME280;593;53.184;8.216;2024-02-21T08:17:20;101196.03;;;11.12;100.00
1207;BME280;593;53.184;8.216;2024-02-21T08:19:46;101190.84;;;11.11;100.00
1207;BME280;593;53.184;8.216;2024-02-21T08:22:14;101187.56;;;11.09;100.00
1207;BME280;593;53.184;8.216;2024-02-21T08:24:40;101191.13;;;11.14;100.00
1207;BME280;593;53.184;8.216;2024-02-21T08:27:05;101199.28;;;11.14;100.00
1207;BME280;593;53.184;8.216;2024-02-21T08:29:31;101189.22;;;11.15;100.00
1207;BME280;593;53.184;8.216;2024-02-21T08:31:57;101190.84;;;11.16;100.00
1207;BME280;593;53.184;8.216;2024-02-21T08:34:22;101183.22;;;11.18;100.00
1207;BME280;593;53.184;8.216;2024-02-21T08:36:47;101180.47;;;11.18;100.00
1207;BME280;593;53.184;8.216;2024-02-21T08:39:13;101182.41;;;11.17;100.00
1207;BME280;593;53.184;8.216;2024-02-21T08:41:42;101172.31;;;11.18;100.00
1207;BME280;593;53.184;8.216;2024-02-21T08:44:10;101176.97;;;11.17;100.00
1207;BME280;593;53.184;8.216;2024-02-21T08:46:36;101164.97;;;11.18;100.00
1207;BME280;593;53.184;8.216;2024-02-21T08:49:05;101171.25;;;11.19;100.00
1207;BME280;593;53.184;8.216;2024-02-21T08:51:31;101164.69;;;11.20;100.00
1207;BME280;593;53.184;8.216;2024-02-21T08:53:58;101161.97;;;11.20;100.00
1207;BME280;593;53.184;8.216;2024-02-21T08:56:23;101156.25;;;11.21;100.00
1207;BME280;593;53.184;8.216;2024-02-21T08:58:49;101144.00;;;11.14;100.00
1207;BME280;593;53.184;8.216;2024-02-21T09:01:15;101158.44;;;11.19;100.00
1207;BME280;593;53.184;8.216;2024-02-21T09:03:41;101163.59;;;11.21;100.00
1207;BME280;593;53.184;8.216;2024-02-21T09:06:07;101159.50;;;11.23;100.00
1207;BME280;593;53.184;8.216;2024-02-21T09:08:33;101154.34;;;11.22;100.00
1207;BME280;593;53.184;8.216;2024-02-21T09:11:02;101153.25;;;11.23;100.00
1207;BME280;593;53.184;8.216;2024-02-21T09:13:28;101160.34;;;11.24;100.00
1207;BME280;593;53.184;8.216;2024-02-21T09:15:54;101150.28;;;11.24;100.00
1207;BME280;593;53.184;8.216;2024-02-21T09:18:19;101149.16;;;11.25;100.00
1207;BME280;593;53.184;8.216;2024-02-21T09:20:45;101150.28;;;11.24;100.00
1207;BME280;593;53.184;8.216;2024-02-21T09:23:11;101149.69;;;11.27;100.00
1207;BME280;593;53.184;8.216;2024-02-21T09:25:36;101152.41;;;11.27;100.00
1207;BME280;593;53.184;8.216;2024-02-21T09:28:02;101152.72;;;11.26;100.00
1207;BME280;593;53.184;8.216;2024-02-21T09:30:28;101150.53;;;11.28;100.00
1207;BME280;593;53.184;8.216;2024-02-21T09:32:53;101148.63;;;11.28;100.00
1207;BME280;593;53.184;8.216;2024-02-21T09:35:19;101145.91;;;11.28;100.00
1207;BME280;593;53.184;8.216;2024-02-21T09:37:44;101144.25;;;11.27;100.00
1207;BME280;593;53.184;8.216;2024-02-21T09:40:10;101139.38;;;11.24;100.00
1207;BME280;593;53.184;8.216;2024-02-21T09:42:40;101135.28;;;11.27;100.00
1207;BME280;593;53.184;8.216;2024-02-21T09:45:21;101131.75;;;11.26;100.00
1207;BME280;593;53.184;8.216;2024-02-21T09:50:32;101118.94;;;11.27;100.00
1207;BME280;593;53.184;8.216;2024-02-21T09:53:00;101114.88;;;11.24;100.00
1207;BME280;593;53.184;8.216;2024-02-21T09:55:29;101115.41;;;11.26;100.00
1207;BME280;593;53.184;8.216;2024-02-21T09:57:58;101104.22;;;11.28;100.00
1207;BME280;593;53.184;8.216;2024-02-21T10:00:24;101104.22;;;11.28;100.00
1207;BME280;593;53.184;8.216;2024-02-21T10:02:49;101096.34;;;11.26;100.00
1207;BME280;593;53.184;8.216;2024-02-21T10:05:15;101099.88;;;11.27;100.00
1207;BME280;593;53.184;8.216;2024-02-21T10:07:41;101099.31;;;11.25;100.00
1207;BME280;593;53.184;8.216;2024-02-21T10:10:07;101097.16;;;11.27;100.00
1207;BME280;593;53.184;8.216;2024-02-21T10:12:33;101100.69;;;11.27;100.00
1207;BME280;593;53.184;8.216;2024-02-21T10:15:02;101090.59;;;11.28;100.00
1207;BME280;593;53.184;8.216;2024-02-21T10:17:28;101083.25;;;11.28;100.00
1207;BME280;593;53.184;8.216;2024-02-21T10:19:54;101081.63;;;11.27;100.00
1207;BME280;593;53.184;8.216;2024-02-21T10:22:19;101071.84;;;11.26;100.00
1207;BME280;593;53.184;8.216;2024-02-21T10:24:46;101071.31;;;11.24;100.00
1207;BME280;593;53.184;8.216;2024-02-21T10:27:11;101078.63;;;11.29;100.00
1207;BME280;593;53.184;8.216;2024-02-21T10:29:37;101071.28;;;11.29;100.00
1207;BME280;593;53.184;8.216;2024-02-21T10:32:13;101057.94;;;11.28;100.00
1207;BME280;593;53.184;8.216;2024-02-21T10:34:41;101072.66;;;11.27;100.00
1207;BME280;593;53.184;8.216;2024-02-21T10:37:08;101070.19;;;11.25;100.00
1207;BME280;593;53.184;8.216;2024-02-21T10:39:43;101066.09;;;11.28;100.00
1207;BME280;593;53.184;8.216;2024-02-21T10:42:14;101064.75;;;11.25;100.00
1207;BME280;593;53.184;8.216;2024-02-21T10:44:43;101059.31;;;11.25;100.00
1207;BME280;593;53.184;8.216;2024-02-21T10:47:11;101051.69;;;11.22;100.00
1207;BME280;593;53.184;8.216;2024-02-21T10:49:44;101052.25;;;11.24;100.00
1207;BME280;593;53.184;8.216;2024-02-21T10:55:04;101041.06;;;11.21;100.00
1207;BME280;593;53.184;8.216;2024-02-21T10:57:31;101038.88;;;11.28;100.00
1207;BME280;593;53.184;8.216;2024-02-21T10:59:58;101037.78;;;11.29;100.00
1207;BME280;593;53.184;8.216;2024-02-21T11:02:25;101025.53;;;11.31;100.00
1207;BME280;593;53.184;8.216;2024-02-21T11:04:53;101027.97;;;11.33;100.00
1207;BME280;593;53.184;8.216;2024-02-21T11:07:20;101020.63;;;11.33;100.00
1207;BME280;593;53.184;8.216;2024-02-21T11:09:52;101018.94;;;11.37;100.00
1207;BME280;593;53.184;8.216;2024-02-21T11:12:20;101012.41;;;11.38;100.00
1207;BME280;593;53.184;8.216;2024-02-21T11:14:46;101002.06;;;11.40;100.00
1207;BME280;593;53.184;8.216;2024-02-21T11:17:19;101002.84;;;11.46;100.00
1207;BME280;593;53.184;8.216;2024-02-21T11:19:47;100987.88;;;11.48;100.00
1207;BME280;593;53.184;8.216;2024-02-21T11:22:20;100977.50;;;11.50;100.00
1207;BME280;593;53.184;8.216;2024-02-21T11:24:47;100977.22;;;11.52;100.00
1207;BME280;593;53.184;8.216;2024-02-21T11:27:18;100967.13;;;11.52;100.00
1207;BME280;593;53.184;8.216;2024-02-21T11:29:49;100951.38;;;11.49;100.00
1207;BME280;593;53.184;8.216;2024-02-21T11:32:20;100953.81;;;11.51;100.00
1207;BME280;593;53.184;8.216;2024-02-21T11:37:20;100953.44;;;11.63;100.00
1207;BME280;593;53.184;8.216;2024-02-21T11:39:46;100950.22;;;11.55;100.00
1207;BME280;593;53.184;8.216;2024-02-21T11:42:11;100956.13;;;11.68;100.00
1207;BME280;593;53.184;8.216;2024-02-21T11:44:38;100946.91;;;11.69;100.00
1207;BME280;593;53.184;8.216;2024-02-21T11:47:05;100938.44;;;11.70;100.00
1207;BME280;593;53.184;8.216;2024-02-21T11:49:31;100935.97;;;11.74;100.00
1207;BME280;593;53.184;8.216;2024-02-21T11:52:00;100938.97;;;11.77;100.00
1207;BME280;593;53.184;8.216;2024-02-21T11:54:30;100918.50;;;11.80;100.00
1207;BME280;593;53.184;8.216;2024-02-21T11:56:55;100917.69;;;11.79;100.00
1207;BME280;593;53.184;8.216;2024-02-21T11:59:21;100917.13;;;11.82;100.00
1207;BME280;593;53.184;8.216;2024-02-21T12:01:48;100911.38;;;11.84;100.00
1207;BME280;593;53.184;8.216;2024-02-21T12:04:13;100908.34;;;11.85;100.00
1207;BME280;593;53.184;8.216;2024-02-21T12:06:39;100910.28;;;11.85;100.00
1207;BME280;593;53.184;8.216;2024-02-21T12:09:07;100890.09;;;11.86;100.00
1207;BME280;593;53.184;8.216;2024-02-21T12:11:34;100899.09;;;11.86;100.00
1207;BME280;593;53.184;8.216;2024-02-21T12:14:03;100878.66;;;11.84;100.00
1207;BME280;593;53.184;8.216;2024-02-21T12:16:31;100885.72;;;11.90;100.00
1207;BME280;593;53.184;8.216;2024-02-21T12:18:57;100872.13;;;11.85;100.00
1207;BME280;593;53.184;8.216;2024-02-21T12:21:27;100867.16;;;11.92;100.00
1207;BME280;593;53.184;8.216;2024-02-21T12:23:54;100869.59;;;11.93;100.00
1207;BME280;593;53.184;8.216;2024-02-21T12:26:20;100857.34;;;11.91;100.00
1207;BME280;593;53.184;8.216;2024-02-21T12:28:46;100861.66;;;11.97;100.00
1207;BME280;593;53.184;8.216;2024-02-21T12:31:12;100858.63;;;11.98;100.00
1207;BME280;593;53.184;8.216;2024-02-21T12:33:37;100859.97;;;12.01;100.00
1207;BME280;593;53.184;8.216;2024-02-21T12:36:03;100845.25;;;12.02;100.00
1207;BME280;593;53.184;8.216;2024-02-21T12:38:29;100837.91;;;12.02;100.00
1207;BME280;593;53.184;8.216;2024-02-21T12:40:54;100836.25;;;12.01;100.00
1207;BME280;593;53.184;8.216;2024-02-21T12:43:20;100825.06;;;12.03;100.00
1207;BME280;593;53.184;8.216;2024-02-21T12:45:47;100815.78;;;12.04;100.00
1207;BME280;593;53.184;8.216;2024-02-21T12:48:13;100815.50;;;12.05;100.00
1207;BME280;593;53.184;8.216;2024-02-21T12:50:40;100810.63;;;12.02;100.00
1207;BME280;593;53.184;8.216;2024-02-21T12:53:17;100809.78;;;12.07;100.00
1207;BME280;593;53.184;8.216;2024-02-21T12:55:44;100802.38;;;12.07;100.00
1207;BME280;593;53.184;8.216;2024-02-21T12:58:10;100792.59;;;12.06;100.00
1207;BME280;593;53.184;8.216;2024-02-21T13:00:35;100789.88;;;12.06;100.00
1207;BME280;593;53.184;8.216;2024-02-21T13:03:01;100769.97;;;12.06;100.00
1207;BME280;593;53.184;8.216;2024-02-21T13:05:26;100764.50;;;12.06;100.00
1207;BME280;593;53.184;8.216;2024-02-21T13:07:52;100760.97;;;12.05;100.00
1207;BME280;593;53.184;8.216;2024-02-21T13:10:18;100745.28;;;11.97;100.00
1207;BME280;593;53.184;8.216;2024-02-21T13:12:43;100748.22;;;12.01;100.00
1207;BME280;593;53.184;8.216;2024-02-21T13:15:09;100742.75;;;12.01;100.00